Terminal Aerodrome Forecast
Issued by NWS

Home | Current Version | Previous Version | Text Only | Print | Product List | Glossary On
Versions: 1 2 3 4 5 6 7 8 9 10 11 12 13 14 15 16 17 18 19 20 21
226
FTUS42 KMLB 182324
TAFSFB
TAF
KSFB 182324Z 1900/1924 07006KT P6SM SKC
     FM190600 VRB03KT P6SM FEW020
      TEMPO 1910/1912 1SM BR VV004
     FM191500 11009KT P6SM SCT035=

USA.gov is the U.S. government's official web portal to all federal, state and local government web resources and services.